Time;durP1;ratioP1;P1;durP2;ratioP2;P2;SDS_P1;SDS_P2;PMS_P1;PMS_P2;Temp;Humidity;BMP_temperature;BMP_pressure;BME280_temperature;BME280_humidity;BME280_pressure;Samples;Min_cycle;Max_cycle;Signal;HPM_P1;HPM_P2
2022/05/23 00:01:19;;;;;;;17.38;3.60;;;37.00;25.30;;;;;;5049864;28;20100;-63
2022/05/23 00:03:46;;;;;;;23.33;3.50;;;36.90;25.80;;;;;;5049524;28;20047;-65
2022/05/23 00:06:19;;;;;;;10.77;2.70;;;36.90;25.80;;;;;;5067680;28;20498;-66
2022/05/23 00:08:46;;;;;;;18.45;4.18;;;36.80;25.90;;;;;;5066138;28;20043;-63
2022/05/23 00:11:13;;;;;;;21.23;3.55;;;36.80;26.20;;;;;;5050389;28;20133;-63
2022/05/23 00:13:39;;;;;;;14.55;3.47;;;36.80;26.10;;;;;;5082344;28;20082;-62
2022/05/23 00:16:07;;;;;;;18.23;3.25;;;36.70;26.10;;;;;;5069615;28;20982;-63
2022/05/23 00:18:33;;;;;;;15.88;3.33;;;36.70;26.40;;;;;;5069311;28;20112;-64
2022/05/23 00:21:00;;;;;;;15.25;3.38;;;36.80;26.40;;;;;;5073190;28;20111;-63
2022/05/23 00:23:26;;;;;;;19.17;3.67;;;36.70;26.30;;;;;;5071639;28;20059;-63
2022/05/23 00:25:52;;;;;;;17.45;3.47;;;36.80;26.50;;;;;;5071363;28;20084;-63
2022/05/23 00:28:19;;;;;;;15.00;3.08;;;36.60;26.20;;;;;;5071317;28;20163;-63
2022/05/23 00:30:45;;;;;;;14.80;3.22;;;36.40;26.30;;;;;;5054865;28;20534;-63
2022/05/23 00:35:57;;;;;;;19.40;3.75;;;36.40;26.10;;;;;;5073070;28;20518;-63
2022/05/23 00:38:23;;;;;;;15.05;3.10;;;36.30;26.40;;;;;;5071046;28;20062;-63
2022/05/23 00:43:13;;;;;;;16.65;3.95;;;36.20;26.10;;;;;;5072263;28;20392;-63
2022/05/23 00:43:39;;;;;;;15.85;3.22;;;36.00;26.10;;;;;;5072710;28;20070;-65
2022/05/23 00:46:05;;;;;;;13.48;2.92;;;36.10;26.40;;;;;;5069196;28;20133;-64
2022/05/23 00:48:32;;;;;;;15.27;3.35;;;36.20;26.20;;;;;;5083112;28;20166;-63
2022/05/23 00:51:07;;;;;;;19.73;3.05;;;36.20;26.40;;;;;;5070956;28;20080;-65
2022/05/23 00:53:41;;;;;;;27.85;3.70;;;36.00;26.30;;;;;;5071180;28;20050;-64
2022/05/23 00:56:10;;;;;;;14.02;3.47;;;35.80;26.30;;;;;;5071001;28;20051;-63
2022/05/23 00:58:42;;;;;;;15.60;3.00;;;35.70;26.40;;;;;;5068694;28;20497;-64
2022/05/23 01:01:12;;;;;;;17.40;4.13;;;35.70;26.80;;;;;;5070727;28;20540;-65
2022/05/23 01:03:39;;;;;;;15.70;3.60;;;35.80;26.50;;;;;;5054122;28;20065;-62
2022/05/23 01:06:07;;;;;;;21.35;3.72;;;35.60;26.80;;;;;;5070870;28;20050;-63
2022/05/23 01:08:39;;;;;;;20.83;3.72;;;35.50;26.70;;;;;;5068987;28;20639;-63
2022/05/23 01:11:06;;;;;;;17.52;3.60;;;35.40;26.60;;;;;;5071759;28;20457;-63
2022/05/23 01:13:33;;;;;;;17.27;3.88;;;35.40;27.00;;;;;;5071576;28;20057;-63
2022/05/23 01:15:59;;;;;;;14.15;2.90;;;35.30;26.90;;;;;;5071474;28;20063;-64
2022/05/23 01:18:26;;;;;;;19.27;3.75;;;35.30;27.20;;;;;;5069939;28;20087;-61
2022/05/23 01:20:59;;;;;;;21.08;3.80;;;35.10;27.10;;;;;;5069273;28;20072;-63
2022/05/23 01:23:34;;;;;;;11.15;3.15;;;35.00;26.80;;;;;;5070699;28;20158;-66
2022/05/23 01:26:01;;;;;;;13.10;3.22;;;34.90;26.90;;;;;;5054413;28;20539;-64
2022/05/23 01:28:37;;;;;;;16.20;3.72;;;35.00;27.20;;;;;;5070760;28;20062;-63
2022/05/23 01:31:05;;;;;;;17.15;3.70;;;34.90;27.50;;;;;;5054220;28;20054;-62
2022/05/23 01:33:32;;;;;;;11.70;3.20;;;34.80;27.30;;;;;;5054097;28;20053;-63
2022/05/23 01:35:59;;;;;;;11.35;3.30;;;34.80;27.60;;;;;;5070427;28;20071;-63
2022/05/23 01:38:26;;;;;;;14.02;3.45;;;34.60;27.30;;;;;;5070571;28;20106;-62
2022/05/23 01:40:55;;;;;;;17.85;3.78;;;34.40;27.50;;;;;;5070269;28;20162;-61
2022/05/23 01:43:23;;;;;;;21.42;4.50;;;34.40;27.20;;;;;;5071235;28;20554;-62
2022/05/23 01:45:49;;;;;;;15.40;3.42;;;34.60;26.90;;;;;;5053525;28;20111;-63
2022/05/23 01:48:16;;;;;;;17.00;3.80;;;34.60;26.80;;;;;;5070090;28;20098;-63
2022/05/23 01:50:42;;;;;;;18.00;3.25;;;34.40;26.70;;;;;;5070106;28;20065;-63
2022/05/23 01:53:09;;;;;;;15.07;2.80;;;34.40;27.20;;;;;;5071094;28;20060;-63
2022/05/23 01:55:36;;;;;;;16.02;2.78;;;34.30;27.30;;;;;;5073634;28;20060;-63
2022/05/23 01:58:03;;;;;;;16.58;3.20;;;34.30;27.10;;;;;;5070000;28;20058;-63
2022/05/23 02:03:15;;;;;;;25.15;3.63;;;33.90;27.50;;;;;;5070005;28;20097;-63
2022/05/23 02:05:41;;;;;;;12.80;3.17;;;33.80;27.50;;;;;;5070074;28;20059;-63
2022/05/23 02:08:08;;;;;;;13.38;2.85;;;33.60;27.40;;;;;;5053776;28;20060;-63
2022/05/23 02:10:34;;;;;;;11.90;3.80;;;33.50;27.60;;;;;;5053355;28;20053;-63
2022/05/23 02:13:02;;;;;;;13.45;3.90;;;33.40;27.50;;;;;;5070032;28;20094;-63
2022/05/23 02:15:31;;;;;;;14.88;3.35;;;33.30;27.50;;;;;;5069870;28;20089;-64
2022/05/23 02:17:59;;;;;;;21.15;3.70;;;33.10;27.50;;;;;;5067469;28;20138;-64
2022/05/23 02:20:26;;;;;;;16.65;3.22;;;33.00;27.80;;;;;;5067084;28;20197;-64
2022/05/23 02:22:53;;;;;;;18.33;4.13;;;32.80;27.80;;;;;;5051112;28;20088;-63
2022/05/23 02:25:20;;;;;;;26.08;3.08;;;32.80;28.00;;;;;;5067468;28;20069;-65
2022/05/23 02:27:47;;;;;;;12.35;3.20;;;32.70;28.10;;;;;;5069673;28;20074;-66
2022/05/23 02:30:13;;;;;;;23.30;3.30;;;32.60;28.00;;;;;;5066727;28;20073;-63
2022/05/23 02:32:40;;;;;;;15.95;2.85;;;32.50;28.00;;;;;;5065360;28;20072;-63
2022/05/23 02:35:07;;;;;;;19.35;3.50;;;32.50;28.10;;;;;;5084885;28;20068;-65
2022/05/23 02:37:33;;;;;;;16.75;3.17;;;32.30;28.10;;;;;;5068408;28;20133;-64
2022/05/23 02:39:59;;;;;;;14.35;3.17;;;32.20;28.20;;;;;;5051679;28;20500;-64
2022/05/23 02:42:26;;;;;;;20.13;3.28;;;32.20;28.10;;;;;;5085881;28;20444;-64
2022/05/23 02:44:52;;;;;;;15.50;3.67;;;32.10;28.10;;;;;;5069477;28;20544;-63
2022/05/23 02:47:18;;;;;;;18.17;5.93;;;32.10;28.00;;;;;;5069228;28;20069;-64
2022/05/23 02:49:45;;;;;;;19.80;7.25;;;32.00;28.10;;;;;;5068011;28;20593;-63
2022/05/23 02:52:11;;;;;;;22.83;6.18;;;31.90;28.00;;;;;;5069243;28;20525;-64
2022/05/23 02:54:37;;;;;;;15.45;4.20;;;31.80;28.10;;;;;;5069235;28;20080;-63
2022/05/23 02:57:04;;;;;;;14.30;3.58;;;31.80;28.60;;;;;;5035098;28;20074;-63
2022/05/23 02:59:30;;;;;;;15.63;3.63;;;31.70;28.10;;;;;;5068939;28;20553;-64
2022/05/23 03:04:43;;;;;;;21.02;3.85;;;31.60;28.20;;;;;;5068794;28;20435;-66
2022/05/23 03:07:10;;;;;;;15.30;3.80;;;31.50;28.20;;;;;;5052747;28;20060;-64
2022/05/23 03:09:37;;;;;;;15.40;4.28;;;31.50;28.20;;;;;;5069005;28;20083;-65
2022/05/23 03:12:03;;;;;;;16.58;3.92;;;31.40;28.30;;;;;;5052280;28;20076;-65
2022/05/23 03:14:30;;;;;;;22.67;4.70;;;31.40;28.40;;;;;;5069936;28;20082;-64
2022/05/23 03:17:06;;;;;;;26.55;5.40;;;31.30;28.30;;;;;;5052125;28;20119;-64
2022/05/23 03:19:36;;;;;;;;;;;31.30;28.50;;;;;;5067517;28;20112;-63
2022/05/23 03:27:36;;;;;;;27.80;4.57;;;31.10;28.70;;;;;;5069132;28;20078;-63
2022/05/23 03:30:05;;;;;;;26.25;5.20;;;31.10;28.80;;;;;;5067763;28;20482;-64
2022/05/23 03:32:32;;;;;;;30.83;5.55;;;31.00;28.90;;;;;;5068765;28;20079;-64
2022/05/23 03:34:58;;;;;;;36.92;6.47;;;31.00;29.10;;;;;;5068344;28;20088;-65
2022/05/23 03:37:25;;;;;;;26.75;5.00;;;30.90;29.30;;;;;;5083786;28;20076;-63
2022/05/23 03:39:52;;;;;;;40.58;5.65;;;30.90;29.10;;;;;;5068579;28;20140;-64
2022/05/23 03:42:18;;;;;;;30.40;5.50;;;30.80;29.10;;;;;;5068139;28;20128;-64
2022/05/23 03:44:45;;;;;;;22.55;5.18;;;30.80;29.30;;;;;;5068717;28;20129;-64
2022/05/23 03:47:12;;;;;;;26.02;5.38;;;30.80;29.30;;;;;;5067873;28;20063;-63
2022/05/23 03:49:38;;;;;;;44.30;6.03;;;30.70;29.60;;;;;;5050290;28;20136;-64
2022/05/23 03:52:05;;;;;;;49.95;5.95;;;30.70;30.60;;;;;;5068471;28;20076;-64
2022/05/23 03:54:31;;;;;;;52.40;6.85;;;30.80;35.20;;;;;;5070076;28;20106;-63
2022/05/23 03:57:03;;;;;;;39.25;6.82;;;30.70;36.80;;;;;;5068533;28;20072;-63
2022/05/23 03:59:30;;;;;;;34.40;6.13;;;30.70;37.50;;;;;;5083094;28;20107;-62
2022/05/23 04:01:57;;;;;;;40.60;6.38;;;30.60;39.00;;;;;;5069090;28;20084;-63
2022/05/23 04:04:29;;;;;;;42.28;7.07;;;30.50;39.70;;;;;;5067754;28;20106;-65
2022/05/23 04:07:00;;;;;;;50.33;6.82;;;30.40;40.40;;;;;;5051071;28;20078;-63
2022/05/23 04:09:28;;;;;;;37.42;5.55;;;30.40;41.00;;;;;;5051396;28;20071;-63
2022/05/23 04:11:55;;;;;;;53.58;6.30;;;30.30;41.80;;;;;;5050010;28;20101;-63
2022/05/23 04:14:22;;;;;;;45.83;6.45;;;30.30;42.40;;;;;;5067020;28;20080;-62
2022/05/23 04:16:49;;;;;;;46.58;5.97;;;30.20;43.00;;;;;;5052517;28;20071;-63
2022/05/23 04:19:16;;;;;;;57.28;6.05;;;30.10;43.30;;;;;;5068658;28;20682;-62
2022/05/23 04:21:44;;;;;;;40.63;6.00;;;30.00;43.60;;;;;;5065750;28;20556;-63
2022/05/23 04:24:11;;;;;;;46.25;5.90;;;29.90;43.90;;;;;;5081707;28;20072;-63
2022/05/23 04:26:38;;;;;;;33.10;5.65;;;29.90;44.20;;;;;;5047727;28;20072;-63
2022/05/23 04:29:08;;;;;;;31.67;5.43;;;29.80;44.30;;;;;;5066808;28;20068;-63
2022/05/23 04:31:36;;;;;;;35.90;5.88;;;29.70;44.40;;;;;;5065445;28;20583;-62
2022/05/23 04:36:50;;;;;;;46.13;6.78;;;29.60;44.40;;;;;;5065755;28;20129;-63
2022/05/23 04:39:17;;;;;;;39.90;7.25;;;29.50;44.20;;;;;;5067351;28;20130;-64
2022/05/23 04:41:43;;;;;;;30.30;6.43;;;29.50;44.30;;;;;;5065845;28;20072;-64
2022/05/23 04:44:10;;;;;;;28.27;6.63;;;29.40;44.70;;;;;;5050185;28;20072;-64
2022/05/23 04:46:36;;;;;;;27.45;6.43;;;29.30;44.80;;;;;;5065696;28;20682;-63
2022/05/23 04:51:48;;;;;;;26.08;6.30;;;29.10;45.20;;;;;;5068190;28;20129;-62
2022/05/23 04:54:14;;;;;;;26.90;6.45;;;29.00;45.40;;;;;;5067433;28;20134;-62
2022/05/23 04:56:40;;;;;;;28.55;6.30;;;29.00;45.70;;;;;;5050422;28;20433;-62
2022/05/23 04:59:07;;;;;;;25.40;6.25;;;29.00;45.90;;;;;;5051142;28;20433;-62
2022/05/23 05:01:33;;;;;;;24.60;6.82;;;28.90;46.40;;;;;;5069009;28;20492;-62
2022/05/23 05:03:59;;;;;;;26.67;7.28;;;28.90;46.60;;;;;;5067106;28;20137;-63
2022/05/23 05:06:26;;;;;;;31.27;8.35;;;28.80;46.90;;;;;;5053672;28;20100;-62
2022/05/23 05:08:52;;;;;;;43.00;9.43;;;28.80;46.90;;;;;;5070081;28;20084;-62
2022/05/23 05:11:19;;;;;;;41.13;9.20;;;28.80;46.90;;;;;;5054265;28;20137;-63
2022/05/23 05:13:45;;;;;;;32.45;8.48;;;28.70;46.70;;;;;;5070213;28;20080;-65
2022/05/23 05:16:12;;;;;;;38.20;7.75;;;28.70;46.80;;;;;;5070537;28;20179;-62
2022/05/23 05:18:39;;;;;;;24.10;6.90;;;28.70;46.80;;;;;;5070783;28;20116;-63
2022/05/23 05:23:40;;;;;;;26.60;6.28;;;28.70;47.10;;;;;;5090233;28;20164;-64
2022/05/23 05:26:07;;;;;;;26.52;5.90;;;28.60;46.70;;;;;;5073383;28;20529;-62
2022/05/23 05:28:33;;;;;;;21.67;5.13;;;28.60;47.20;;;;;;5089817;28;20125;-63
2022/05/23 05:31:15;;;;;;;20.67;5.38;;;28.60;47.30;;;;;;5079564;28;20079;-61
2022/05/23 05:33:47;;;;;;;24.58;5.07;;;28.60;47.30;;;;;;5092769;28;20095;-62
2022/05/23 05:36:19;;;;;;;22.45;5.22;;;28.50;46.80;;;;;;5057417;28;20075;-63
2022/05/23 05:38:53;;;;;;;24.70;5.03;;;28.40;46.60;;;;;;5069223;28;20095;-65
2022/05/23 05:41:28;;;;;;;24.20;5.50;;;28.40;47.00;;;;;;5080507;28;20075;-63
2022/05/23 05:44:01;;;;;;;29.25;4.95;;;28.40;46.70;;;;;;5073396;28;20090;-63
2022/05/23 05:46:34;;;;;;;32.47;6.28;;;28.20;46.90;;;;;;5074693;28;20106;-63
2022/05/23 05:49:04;;;;;;;36.50;6.57;;;28.20;48.00;;;;;;5092497;28;20448;-63
2022/05/23 05:51:32;;;;;;;24.00;5.63;;;28.20;48.40;;;;;;5073535;28;20126;-65
2022/05/23 05:53:58;;;;;;;22.35;6.13;;;28.20;48.00;;;;;;5072661;28;20118;-67
2022/05/23 05:56:25;;;;;;;24.33;5.63;;;28.20;48.20;;;;;;5074388;28;20064;-67
2022/05/23 05:58:51;;;;;;;25.30;5.05;;;28.20;47.60;;;;;;5073671;28;20159;-66
2022/05/23 06:01:17;;;;;;;28.85;5.32;;;28.10;47.50;;;;;;5071985;28;20191;-66
2022/05/23 06:03:44;;;;;;;26.73;5.18;;;28.10;47.20;;;;;;5090595;28;20099;-67
2022/05/23 06:11:40;;;;;;;21.55;5.60;;;27.90;48.90;;;;;;5074938;28;20106;-67
2022/05/23 06:14:07;;;;;;;18.27;5.07;;;27.80;50.10;;;;;;5073884;28;20087;-67
2022/05/23 06:16:37;;;;;;;21.02;5.18;;;27.80;50.60;;;;;;5072844;28;20078;-66
2022/05/23 06:19:04;;;;;;;25.20;5.03;;;27.70;51.00;;;;;;5072148;28;20074;-66
2022/05/23 06:21:30;;;;;;;20.30;4.88;;;27.70;51.00;;;;;;5059917;28;20076;-67
2022/05/23 06:23:57;;;;;;;19.00;5.00;;;27.60;51.40;;;;;;5090992;28;20085;-66
2022/05/23 06:26:29;;;;;;;22.58;5.05;;;27.60;51.80;;;;;;5075430;28;20262;-66
2022/05/23 06:28:55;;;;;;;26.17;5.35;;;27.50;52.60;;;;;;5061801;28;20102;-68
2022/05/23 06:31:22;;;;;;;22.40;5.35;;;27.30;54.10;;;;;;5090100;28;20102;-66
2022/05/23 06:33:49;;;;;;;27.63;5.72;;;27.30;54.80;;;;;;5074051;28;20074;-65
2022/05/23 06:36:17;;;;;;;25.52;5.85;;;27.10;55.60;;;;;;5078792;28;20095;-66
2022/05/23 06:38:43;;;;;;;19.98;5.25;;;27.10;56.00;;;;;;5076294;28;20075;-66
2022/05/23 06:41:11;;;;;;;23.40;5.68;;;27.00;56.20;;;;;;5064532;28;20071;-68
2022/05/23 06:43:39;;;;;;;22.45;5.32;;;27.00;56.30;;;;;;5076102;28;20132;-68
2022/05/23 06:46:06;;;;;;;27.02;6.13;;;27.00;56.60;;;;;;5059456;28;20124;-67
2022/05/23 06:48:34;;;;;;;24.42;5.45;;;26.90;57.90;;;;;;5076370;28;20498;-68
2022/05/23 06:51:00;;;;;;;22.15;5.25;;;26.80;59.20;;;;;;5078217;28;20518;-65
2022/05/23 06:53:30;;;;;;;25.67;6.15;;;26.80;60.10;;;;;;5076942;28;20075;-66
2022/05/23 06:55:57;;;;;;;24.85;5.85;;;26.70;61.80;;;;;;5057733;28;20114;-65
2022/05/23 06:58:24;;;;;;;21.73;5.63;;;26.60;62.20;;;;;;5055754;28;20546;-66
2022/05/23 07:00:52;;;;;;;21.45;5.35;;;26.50;63.70;;;;;;5074064;28;20082;-66
2022/05/23 07:03:19;;;;;;;31.70;6.13;;;26.40;64.80;;;;;;5077271;28;20095;-65
2022/05/23 07:14:01;;;;;;;23.88;5.65;;;26.10;68.90;;;;;;5077998;28;20607;-66
2022/05/23 07:16:29;;;;;;;29.58;6.63;;;26.10;68.90;;;;;;5072476;28;20165;-65
2022/05/23 07:18:56;;;;;;;33.53;6.13;;;25.90;69.80;;;;;;5093016;28;20243;-65
2022/05/23 07:21:24;;;;;;;23.63;5.97;;;25.90;71.10;;;;;;5089762;28;20064;-67
2022/05/23 07:23:51;;;;;;;33.13;8.02;;;25.90;71.80;;;;;;5076365;28;20094;-66
2022/05/23 07:26:19;;;;;;;32.63;6.78;;;26.00;72.70;;;;;;5038542;28;20097;-66
2022/05/23 07:28:47;;;;;;;33.45;6.90;;;25.80;74.40;;;;;;5057156;28;20868;-67
2022/05/23 07:31:14;;;;;;;23.88;6.38;;;25.70;75.50;;;;;;5076091;28;20073;-67
2022/05/23 07:33:41;;;;;;;32.70;6.80;;;25.80;75.80;;;;;;5076670;28;20518;-68
2022/05/23 07:36:08;;;;;;;29.90;6.30;;;25.80;76.50;;;;;;5078536;28;20095;-66
2022/05/23 07:38:38;;;;;;;27.45;6.07;;;25.80;77.50;;;;;;5076632;28;20138;-68
2022/05/23 07:41:07;;;;;;;28.58;6.15;;;25.70;78.70;;;;;;5076765;28;20076;-66
2022/05/23 07:43:35;;;;;;;28.27;6.75;;;25.60;80.00;;;;;;5077250;28;20449;-67
2022/05/23 07:46:10;;;;;;;29.70;6.53;;;25.60;81.50;;;;;;5078040;28;20573;-66
2022/05/23 07:48:38;;;;;;;27.70;6.25;;;25.60;82.10;;;;;;5076223;28;20620;-66
2022/05/23 07:51:05;;;;;;;25.10;6.07;;;25.50;83.00;;;;;;5075772;28;20087;-66
2022/05/23 08:01:47;;;;;;;24.92;6.25;;;25.30;87.00;;;;;;5091298;28;20548;-66
2022/05/23 08:04:13;;;;;;;32.40;7.10;;;25.20;88.30;;;;;;5078739;28;20079;-64
2022/05/23 08:06:39;;;;;;;23.88;6.45;;;25.20;89.50;;;;;;5075069;28;20431;-65
2022/05/23 08:09:07;;;;;;;27.10;6.63;;;25.10;90.00;;;;;;5072032;28;20139;-67
2022/05/23 08:11:33;;;;;;;35.35;7.05;;;25.10;90.40;;;;;;5077439;28;20071;-66
2022/05/23 08:14:00;;;;;;;33.83;7.32;;;25.20;90.60;;;;;;5075706;28;20178;-65
2022/05/23 08:16:26;;;;;;;28.15;7.90;;;25.10;90.80;;;;;;5080926;28;20067;-66
2022/05/23 08:18:53;;;;;;;28.58;6.90;;;24.90;91.40;;;;;;5071326;28;20170;-65
2022/05/23 08:21:19;;;;;;;30.70;6.93;;;24.90;91.70;;;;;;5088645;28;20096;-65
2022/05/23 08:23:45;;;;;;;27.42;6.43;;;25.00;92.20;;;;;;5054937;28;20434;-66
2022/05/23 08:26:12;;;;;;;36.08;7.05;;;25.00;92.40;;;;;;5073984;28;20437;-66
2022/05/23 08:28:39;;;;;;;29.00;6.85;;;24.90;92.50;;;;;;5088779;28;20473;-66
2022/05/23 08:31:06;;;;;;;31.77;7.00;;;24.90;92.70;;;;;;5075681;28;20082;-65
2022/05/23 08:33:32;;;;;;;29.10;7.03;;;24.80;93.40;;;;;;5075860;28;20075;-67
2022/05/23 08:35:58;;;;;;;29.85;6.43;;;24.80;93.70;;;;;;5088829;28;20067;-66
2022/05/23 08:38:25;;;;;;;30.27;6.60;;;24.70;94.30;;;;;;5089322;28;20140;-64
2022/05/23 08:41:13;;;;;;;30.40;6.57;;;24.50;95.00;;;;;;5080342;28;20075;-64
2022/05/23 08:44:10;;;;;;;30.92;7.35;;;24.60;95.80;;;;;;5092877;28;20087;-61
2022/05/23 08:46:59;;;;;;;28.10;6.65;;;24.90;95.10;;;;;;5074982;28;20134;-62
2022/05/23 08:49:54;;;;;;;19.75;6.03;;;25.10;94.90;;;;;;5093098;28;20122;-62
2022/05/23 08:52:45;;;;;;;26.60;5.68;;;25.30;94.00;;;;;;5080424;28;20087;-62
2022/05/23 08:55:31;;;;;;;28.40;6.85;;;25.10;94.30;;;;;;5081756;28;20489;-62
2022/05/23 08:58:04;;;;;;;24.58;5.55;;;25.30;94.10;;;;;;5078084;28;20530;-61
2022/05/23 09:00:54;;;;;;;24.38;5.72;;;25.40;94.00;;;;;;5081522;28;20091;-62
2022/05/23 09:03:31;;;;;;;25.17;5.07;;;25.50;94.20;;;;;;5078731;28;20080;-63
2022/05/23 09:06:07;;;;;;;23.13;5.10;;;25.60;94.10;;;;;;5078606;28;20124;-61
2022/05/23 09:08:47;;;;;;;26.23;5.68;;;25.40;94.10;;;;;;5058173;28;20087;-63
2022/05/23 09:11:32;;;;;;;26.20;6.15;;;25.30;94.40;;;;;;5060386;28;20548;-61
2022/05/23 09:13:59;;;;;;;27.77;6.82;;;24.90;95.00;;;;;;5078247;28;20079;-61
2022/05/23 09:16:54;;;;;;;22.73;4.97;;;25.10;95.00;;;;;;5042228;28;20531;-62
2022/05/23 09:19:51;;;;;;;25.17;6.45;;;25.30;94.30;;;;;;5073915;28;20072;-62
2022/05/23 09:22:43;;;;;;;32.55;7.00;;;25.20;94.50;;;;;;5078189;28;20172;-62
2022/05/23 09:25:13;;;;;;;29.27;5.95;;;25.40;94.20;;;;;;5062970;28;20083;-61
2022/05/23 09:28:08;;;;;;;21.38;5.85;;;25.10;94.00;;;;;;5091746;28;20153;-62
2022/05/23 09:30:35;;;;;;;23.20;5.65;;;25.00;94.40;;;;;;5073049;28;20076;-62
2022/05/23 09:33:02;;;;;;;27.90;5.78;;;25.10;94.40;;;;;;5078045;28;20079;-62
2022/05/23 09:35:50;;;;;;;20.60;5.07;;;25.00;94.50;;;;;;5082883;28;20079;-61
2022/05/23 09:38:31;;;;;;;29.80;5.75;;;24.90;94.70;;;;;;5075504;28;20100;-62
2022/05/23 09:40:58;;;;;;;22.00;5.05;;;24.60;95.40;;;;;;5062544;28;20418;-63
2022/05/23 09:49:20;;;;;;;23.63;5.15;;;24.70;94.60;;;;;;5080051;28;20600;-62
2022/05/23 09:52:25;;;;;;;20.80;4.60;;;24.50;93.90;;;;;;5091865;28;20530;-63
2022/05/23 09:55:16;;;;;;;18.90;4.90;;;24.50;93.40;;;;;;5073251;28;20628;-61
2022/05/23 09:58:08;;;;;;;18.48;4.63;;;24.60;92.70;;;;;;5079932;28;20475;-62
2022/05/23 10:00:36;;;;;;;23.52;5.07;;;24.30;92.80;;;;;;5075522;28;20184;-62
2022/05/23 10:03:13;;;;;;;23.27;4.95;;;24.40;92.60;;;;;;5077075;28;20099;-61
2022/05/23 10:05:53;;;;;;;20.80;4.95;;;24.60;92.30;;;;;;5091637;28;20174;-61
2022/05/23 10:08:41;;;;;;;28.05;5.15;;;24.40;91.60;;;;;;5076249;28;20083;-62
2022/05/23 10:11:21;;;;;;;21.67;4.95;;;24.50;90.80;;;;;;5075077;28;20076;-60
2022/05/23 10:13:57;;;;;;;19.25;5.32;;;24.50;90.00;;;;;;5074998;28;20525;-62
2022/05/23 10:16:45;;;;;;;21.17;5.00;;;24.20;89.70;;;;;;5073408;28;20071;-62
2022/05/23 10:19:25;;;;;;;18.27;4.63;;;24.20;89.60;;;;;;5090302;28;20444;-61
2022/05/23 10:22:06;;;;;;;19.63;4.22;;;24.40;88.70;;;;;;5075821;28;20118;-61
2022/05/23 10:24:34;;;;;;;17.42;4.85;;;24.40;86.10;;;;;;5074590;28;20437;-62
2022/05/23 10:27:15;;;;;;;19.58;4.47;;;24.10;86.10;;;;;;5059574;28;20589;-62
2022/05/23 10:29:58;;;;;;;16.63;4.40;;;23.80;86.10;;;;;;5075190;28;20118;-61
2022/05/23 10:32:37;;;;;;;19.83;4.57;;;23.90;86.00;;;;;;5076006;28;20298;-63
2022/05/23 10:35:38;;;;;;;18.45;4.53;;;23.90;85.30;;;;;;5082442;28;20130;-62
2022/05/23 10:44:16;;;;;;;15.98;4.05;;;24.00;84.20;;;;;;5090008;28;20453;-62
2022/05/23 10:46:48;;;;;;;14.65;4.10;;;24.10;84.00;;;;;;5090296;28;20521;-62
2022/05/23 10:49:28;;;;;;;17.42;4.50;;;23.90;82.80;;;;;;5060895;28;20120;-62
2022/05/23 10:52:24;;;;;;;23.25;5.07;;;23.80;82.20;;;;;;5055902;28;20067;-63
2022/05/23 10:55:06;;;;;;;22.30;4.95;;;23.90;81.70;;;;;;5077760;28;20083;-62
2022/05/23 10:57:44;;;;;;;22.50;5.07;;;23.90;81.10;;;;;;5078612;28;20559;-62
2022/05/23 11:00:17;;;;;;;17.48;4.15;;;23.80;80.50;;;;;;5078140;28;20088;-62
2022/05/23 11:03:18;;;;;;;16.88;4.57;;;23.80;79.60;;;;;;5071429;28;20215;-62
2022/05/23 11:06:07;;;;;;;18.48;4.30;;;23.80;78.80;;;;;;5075485;28;20155;-63
2022/05/23 11:08:55;;;;;;;17.40;4.75;;;23.90;78.00;;;;;;5089680;28;20424;-61
2022/05/23 11:11:39;;;;;;;17.58;3.92;;;23.80;77.00;;;;;;5089695;28;20067;-63
2022/05/23 11:14:29;;;;;;;17.63;4.05;;;23.70;76.90;;;;;;5090032;28;20107;-64
2022/05/23 11:17:07;;;;;;;17.13;4.05;;;23.70;76.30;;;;;;5059768;28;20516;-62
2022/05/23 11:19:36;;;;;;;13.32;3.80;;;23.70;76.00;;;;;;5089184;28;20088;-62
2022/05/23 11:22:09;;;;;;;17.58;3.95;;;23.60;76.20;;;;;;5075908;28;20205;-62
2022/05/23 11:24:57;;;;;;;12.07;4.05;;;23.70;75.90;;;;;;5075160;28;20072;-64
2022/05/23 11:35:45;;;;;;;16.50;3.65;;;23.50;72.80;;;;;;5092294;28;20106;-62
2022/05/23 11:38:13;;;;;;;17.83;3.90;;;23.40;72.50;;;;;;5075898;28;20525;-62
2022/05/23 11:40:40;;;;;;;20.33;4.28;;;23.30;73.00;;;;;;5075453;28;20125;-63
2022/05/23 11:43:11;;;;;;;16.13;4.13;;;23.30;71.80;;;;;;5073208;28;20083;-62
2022/05/23 11:45:57;;;;;;;12.73;4.20;;;23.40;71.70;;;;;;5076166;28;20118;-62
2022/05/23 11:48:35;;;;;;;14.48;3.97;;;23.50;71.50;;;;;;5089727;28;20429;-62
2022/05/23 11:51:23;;;;;;;19.10;3.75;;;23.20;71.60;;;;;;5090062;28;20098;-63
2022/05/23 11:54:03;;;;;;;16.27;3.60;;;23.30;72.10;;;;;;5090873;28;20083;-61
2022/05/23 11:57:05;;;;;;;16.38;4.07;;;23.00;72.50;;;;;;5088657;28;20071;-63
2022/05/23 11:59:31;;;;;;;18.75;3.88;;;23.00;73.30;;;;;;5088618;28;20106;-63
2022/05/23 12:02:11;;;;;;;16.27;4.32;;;23.00;73.00;;;;;;5072341;28;20511;-64
2022/05/23 12:04:49;;;;;;;18.95;4.03;;;23.00;73.30;;;;;;5087880;28;20168;-64
2022/05/23 12:07:31;;;;;;;17.83;4.15;;;23.10;72.90;;;;;;5088627;28;20552;-65
2022/05/23 12:10:22;;;;;;;22.20;4.68;;;23.00;73.30;;;;;;5074310;28;20083;-62
2022/05/23 12:12:57;;;;;;;18.70;4.22;;;23.00;73.40;;;;;;5073976;28;20079;-63
2022/05/23 12:15:46;;;;;;;13.38;4.30;;;23.00;73.60;;;;;;5094012;28;20487;-62
2022/05/23 12:18:24;;;;;;;22.58;4.97;;;23.00;73.40;;;;;;5091111;28;20529;-63
2022/05/23 12:20:54;;;;;;;18.42;4.72;;;22.90;73.60;;;;;;5080541;28;20090;-63
2022/05/23 12:23:42;;;;;;;18.08;5.40;;;22.90;74.10;;;;;;5077644;28;20115;-64
2022/05/23 12:26:23;;;;;;;24.33;6.53;;;22.80;74.40;;;;;;5077775;28;20073;-62
2022/05/23 12:29:00;;;;;;;21.30;6.57;;;22.60;76.00;;;;;;5081599;28;20077;-63
2022/05/23 12:31:33;;;;;;;24.85;8.15;;;22.60;75.70;;;;;;5093181;28;20087;-63
2022/05/23 12:34:03;;;;;;;32.65;9.85;;;22.70;75.60;;;;;;5077142;28;20215;-63
2022/05/23 12:36:36;;;;;;;29.98;9.82;;;22.60;75.90;;;;;;5090144;28;20077;-63
2022/05/23 12:39:24;;;;;;;35.03;11.25;;;22.60;76.20;;;;;;5064198;28;20102;-62
2022/05/23 12:42:14;;;;;;;27.65;10.63;;;22.50;76.70;;;;;;5078447;28;20075;-63
2022/05/23 12:44:58;;;;;;;31.92;9.45;;;22.50;77.30;;;;;;5078045;28;20069;-63
2022/05/23 12:47:46;;;;;;;24.35;8.90;;;22.50;77.50;;;;;;5078969;28;20217;-62
2022/05/23 12:50:51;;;;;;;26.15;8.18;;;22.50;78.10;;;;;;5078268;28;20088;-62
2022/05/23 12:53:33;;;;;;;29.48;9.18;;;22.40;78.80;;;;;;5091772;28;20708;-62
2022/05/23 12:56:20;;;;;;;42.60;13.45;;;22.30;78.90;;;;;;5058589;28;20193;-63
2022/05/23 12:59:08;;;;;;;57.92;19.15;;;22.20;79.40;;;;;;5060116;28;20089;-63
2022/05/23 13:01:38;;;;;;;61.08;20.88;;;22.20;79.40;;;;;;5075815;28;20088;-62
2022/05/23 13:04:19;;;;;;;60.70;20.92;;;22.20;79.40;;;;;;5077477;28;20449;-63
2022/05/23 13:06:56;;;;;;;53.97;19.05;;;22.30;79.60;;;;;;5091845;28;20060;-64
2022/05/23 13:09:57;;;;;;;56.95;18.65;;;22.30;79.50;;;;;;5062059;28;20076;-61
2022/05/23 13:12:35;;;;;;;61.75;20.13;;;22.40;79.10;;;;;;5012808;28;20552;-63
2022/05/23 13:15:02;;;;;;;56.75;19.33;;;22.30;79.30;;;;;;5014471;28;20093;-62
2022/05/23 13:17:40;;;;;;;51.03;18.35;;;22.20;79.80;;;;;;5013834;28;20102;-63
2022/05/23 13:23:16;;;;;;;64.15;18.73;;;22.20;80.00;;;;;;5029622;28;20164;-63
2022/05/23 13:25:43;;;;;;;54.10;15.68;;;22.40;80.00;;;;;;5012412;28;20164;-63
2022/05/23 13:28:12;;;;;;;46.10;15.73;;;22.50;79.20;;;;;;5030010;28;20085;-63
2022/05/23 13:30:44;;;;;;;45.33;13.45;;;22.40;79.20;;;;;;5016030;28;20090;-63
2022/05/23 13:33:30;;;;;;;40.80;11.18;;;22.40;79.10;;;;;;5029078;28;20525;-63
2022/05/23 13:36:02;;;;;;;33.88;8.88;;;22.50;79.30;;;;;;5014813;28;20085;-63
2022/05/23 13:38:31;;;;;;;37.13;9.13;;;22.40;78.60;;;;;;5012304;28;20074;-63
2022/05/23 13:41:01;;;;;;;35.40;7.25;;;22.40;78.40;;;;;;5029568;28;20070;-63
2022/05/23 13:43:44;;;;;;;33.85;6.32;;;22.40;78.40;;;;;;5012536;28;20156;-64
2022/05/23 13:46:20;;;;;;;31.60;6.60;;;22.50;78.10;;;;;;5029036;28;20541;-63
2022/05/23 13:48:50;;;;;;;23.60;6.82;;;22.50;77.50;;;;;;5040897;28;20191;-63
2022/05/23 13:51:34;;;;;;;33.35;6.68;;;22.50;77.70;;;;;;5062518;28;20076;-64
2022/05/23 13:54:10;;;;;;;36.80;6.30;;;22.60;77.40;;;;;;5080225;28;20083;-63
2022/05/23 13:56:42;;;;;;;25.98;6.50;;;22.70;76.80;;;;;;5055900;28;20218;-62
2022/05/23 13:59:16;;;;;;;24.58;5.80;;;22.80;76.40;;;;;;5093991;28;20076;-62
2022/05/23 14:01:54;;;;;;;34.88;6.55;;;22.80;75.60;;;;;;5039565;28;20608;-62
2022/05/23 14:04:25;;;;;;;36.85;6.80;;;22.90;75.20;;;;;;5078917;28;20095;-61
2022/05/23 14:07:03;;;;;;;42.40;7.07;;;23.00;75.10;;;;;;5072570;28;20124;-62
2022/05/23 14:09:31;;;;;;;25.27;5.32;;;23.10;75.20;;;;;;5060718;28;20067;-63